sensor_id;sensor_type;location;lat;lon;timestamp;P1;durP1;ratioP1;P2;durP2;ratioP2
4210;SDS011;2119;48.828;12.396;2022-09-09T00:03:49;3.30;;;1.37;;
4210;SDS011;2119;48.828;12.396;2022-09-09T00:09:08;2.43;;;1.40;;
4210;SDS011;2119;48.828;12.396;2022-09-09T00:14:16;2.43;;;1.40;;
4210;SDS011;2119;48.828;12.396;2022-09-09T00:24:26;2.23;;;1.40;;
4210;SDS011;2119;48.828;12.396;2022-09-09T00:34:31;1.63;;;1.43;;
4210;SDS011;2119;48.828;12.396;2022-09-09T00:39:39;1.63;;;1.53;;
4210;SDS011;2119;48.828;12.396;2022-09-09T00:44:51;1.53;;;1.43;;
4210;SDS011;2119;48.828;12.396;2022-09-09T01:10:26;4.27;;;1.40;;
4210;SDS011;2119;48.828;12.396;2022-09-09T01:15:29;1.40;;;1.17;;
4210;SDS011;2119;48.828;12.396;2022-09-09T01:20:46;1.20;;;1.10;;
4210;SDS011;2119;48.828;12.396;2022-09-09T01:31:09;1.10;;;1.00;;
4210;SDS011;2119;48.828;12.396;2022-09-09T01:41:41;1.50;;;1.40;;
4210;SDS011;2119;48.828;12.396;2022-09-09T01:46:41;2.60;;;1.38;;
4210;SDS011;2119;48.828;12.396;2022-09-09T01:51:41;1.87;;;1.77;;
4210;SDS011;2119;48.828;12.396;2022-09-09T02:07:38;1.60;;;1.50;;
4210;SDS011;2119;48.828;12.396;2022-09-09T02:12:40;1.97;;;1.70;;
4210;SDS011;2119;48.828;12.396;2022-09-09T02:17:44;3.10;;;2.90;;
4210;SDS011;2119;48.828;12.396;2022-09-09T02:22:47;2.60;;;1.80;;
4210;SDS011;2119;48.828;12.396;2022-09-09T02:27:50;1.60;;;1.50;;
4210;SDS011;2119;48.828;12.396;2022-09-09T02:32:52;2.70;;;1.67;;
4210;SDS011;2119;48.828;12.396;2022-09-09T02:37:58;2.47;;;2.27;;
4210;SDS011;2119;48.828;12.396;2022-09-09T02:43:02;3.10;;;2.90;;
4210;SDS011;2119;48.828;12.396;2022-09-09T02:48:12;5.70;;;3.03;;
4210;SDS011;2119;48.828;12.396;2022-09-09T02:58:18;2.63;;;2.40;;
4210;SDS011;2119;48.828;12.396;2022-09-09T03:03:19;2.47;;;2.27;;
4210;SDS011;2119;48.828;12.396;2022-09-09T03:08:20;3.20;;;2.80;;
4210;SDS011;2119;48.828;12.396;2022-09-09T03:18:25;2.30;;;2.20;;
4210;SDS011;2119;48.828;12.396;2022-09-09T03:23:26;4.07;;;2.50;;
4210;SDS011;2119;48.828;12.396;2022-09-09T03:28:29;2.37;;;2.13;;
4210;SDS011;2119;48.828;12.396;2022-09-09T03:33:31;2.90;;;2.70;;
4210;SDS011;2119;48.828;12.396;2022-09-09T03:38:32;3.13;;;2.77;;
4210;SDS011;2119;48.828;12.396;2022-09-09T03:48:37;2.93;;;2.40;;
4210;SDS011;2119;48.828;12.396;2022-09-09T03:58:42;3.00;;;2.53;;
4210;SDS011;2119;48.828;12.396;2022-09-09T04:03:48;3.55;;;2.88;;
4210;SDS011;2119;48.828;12.396;2022-09-09T04:08:48;3.57;;;3.03;;
4210;SDS011;2119;48.828;12.396;2022-09-09T04:13:50;3.90;;;3.00;;
4210;SDS011;2119;48.828;12.396;2022-09-09T04:18:50;4.40;;;3.30;;
4210;SDS011;2119;48.828;12.396;2022-09-09T04:23:54;3.70;;;2.70;;
4210;SDS011;2119;48.828;12.396;2022-09-09T04:28:55;4.23;;;3.20;;
4210;SDS011;2119;48.828;12.396;2022-09-09T04:33:57;3.03;;;2.83;;
4210;SDS011;2119;48.828;12.396;2022-09-09T04:38:57;3.53;;;3.10;;
4210;SDS011;2119;48.828;12.396;2022-09-09T04:44:01;3.50;;;3.30;;
4210;SDS011;2119;48.828;12.396;2022-09-09T04:49:01;4.23;;;3.97;;
4210;SDS011;2119;48.828;12.396;2022-09-09T04:54:02;3.80;;;3.50;;
4210;SDS011;2119;48.828;12.396;2022-09-09T04:59:02;5.67;;;4.80;;
4210;SDS011;2119;48.828;12.396;2022-09-09T05:04:03;4.60;;;4.20;;
4210;SDS011;2119;48.828;12.396;2022-09-09T05:09:03;6.73;;;4.43;;
4210;SDS011;2119;48.828;12.396;2022-09-09T05:14:06;4.82;;;4.43;;
4210;SDS011;2119;48.828;12.396;2022-09-09T05:19:09;5.57;;;5.17;;
4210;SDS011;2119;48.828;12.396;2022-09-09T05:24:12;4.63;;;4.33;;
4210;SDS011;2119;48.828;12.396;2022-09-09T05:29:12;3.97;;;3.77;;
4210;SDS011;2119;48.828;12.396;2022-09-09T05:34:14;32.20;;;6.90;;
4210;SDS011;2119;48.828;12.396;2022-09-09T05:39:16;6.30;;;5.80;;
4210;SDS011;2119;48.828;12.396;2022-09-09T05:44:18;5.90;;;5.50;;
4210;SDS011;2119;48.828;12.396;2022-09-09T05:54:23;6.83;;;6.33;;
4210;SDS011;2119;48.828;12.396;2022-09-09T05:59:25;6.53;;;5.97;;
4210;SDS011;2119;48.828;12.396;2022-09-09T06:04:26;6.53;;;5.93;;
4210;SDS011;2119;48.828;12.396;2022-09-09T06:09:26;5.47;;;5.07;;
4210;SDS011;2119;48.828;12.396;2022-09-09T06:14:27;4.97;;;4.67;;
4210;SDS011;2119;48.828;12.396;2022-09-09T06:19:27;6.10;;;5.60;;
4210;SDS011;2119;48.828;12.396;2022-09-09T06:24:28;5.35;;;4.97;;
4210;SDS011;2119;48.828;12.396;2022-09-09T06:29:30;5.33;;;5.03;;
4210;SDS011;2119;48.828;12.396;2022-09-09T06:34:31;6.90;;;6.20;;
4210;SDS011;2119;48.828;12.396;2022-09-09T06:39:31;7.13;;;6.63;;
4210;SDS011;2119;48.828;12.396;2022-09-09T06:44:32;7.07;;;6.50;;
4210;SDS011;2119;48.828;12.396;2022-09-09T06:49:36;9.90;;;5.70;;
4210;SDS011;2119;48.828;12.396;2022-09-09T06:54:37;7.07;;;6.53;;
4210;SDS011;2119;48.828;12.396;2022-09-09T06:59:37;6.43;;;5.93;;
4210;SDS011;2119;48.828;12.396;2022-09-09T07:04:37;6.93;;;6.43;;
4210;SDS011;2119;48.828;12.396;2022-09-09T07:09:38;5.90;;;5.50;;
4210;SDS011;2119;48.828;12.396;2022-09-09T07:14:38;5.90;;;5.40;;
4210;SDS011;2119;48.828;12.396;2022-09-09T07:19:45;5.70;;;5.30;;
4210;SDS011;2119;48.828;12.396;2022-09-09T07:24:45;5.30;;;4.93;;
4210;SDS011;2119;48.828;12.396;2022-09-09T07:34:49;6.67;;;6.07;;
4210;SDS011;2119;48.828;12.396;2022-09-09T07:39:52;5.70;;;5.30;;
4210;SDS011;2119;48.828;12.396;2022-09-09T07:44:52;5.70;;;5.30;;
4210;SDS011;2119;48.828;12.396;2022-09-09T07:49:54;5.33;;;4.90;;
4210;SDS011;2119;48.828;12.396;2022-09-09T07:54:55;5.00;;;4.70;;
4210;SDS011;2119;48.828;12.396;2022-09-09T08:00:00;5.10;;;4.77;;
4210;SDS011;2119;48.828;12.396;2022-09-09T08:05:02;4.90;;;4.60;;
4210;SDS011;2119;48.828;12.396;2022-09-09T08:10:03;4.70;;;4.40;;
4210;SDS011;2119;48.828;12.396;2022-09-09T08:15:03;4.87;;;4.47;;
4210;SDS011;2119;48.828;12.396;2022-09-09T08:20:06;4.77;;;4.37;;
4210;SDS011;2119;48.828;12.396;2022-09-09T08:25:11;9.47;;;5.20;;
4210;SDS011;2119;48.828;12.396;2022-09-09T08:30:13;4.20;;;3.90;;
4210;SDS011;2119;48.828;12.396;2022-09-09T08:35:14;5.50;;;4.00;;
4210;SDS011;2119;48.828;12.396;2022-09-09T08:40:18;3.83;;;3.63;;
4210;SDS011;2119;48.828;12.396;2022-09-09T08:50:36;2.83;;;2.63;;
4210;SDS011;2119;48.828;12.396;2022-09-09T08:55:45;3.07;;;2.87;;
4210;SDS011;2119;48.828;12.396;2022-09-09T09:10:53;3.83;;;3.00;;
4210;SDS011;2119;48.828;12.396;2022-09-09T09:16:09;4.03;;;2.53;;
4210;SDS011;2119;48.828;12.396;2022-09-09T09:21:14;2.87;;;2.67;;
4210;SDS011;2119;48.828;12.396;2022-09-09T09:26:53;2.80;;;2.60;;
4210;SDS011;2119;48.828;12.396;2022-09-09T09:31:53;2.70;;;2.50;;
4210;SDS011;2119;48.828;12.396;2022-09-09T09:36:56;3.17;;;2.93;;
4210;SDS011;2119;48.828;12.396;2022-09-09T09:41:57;3.97;;;3.77;;
4210;SDS011;2119;48.828;12.396;2022-09-09T09:47:15;4.83;;;4.43;;
4210;SDS011;2119;48.828;12.396;2022-09-09T09:52:19;3.93;;;3.53;;
4210;SDS011;2119;48.828;12.396;2022-09-09T09:57:25;5.37;;;4.50;;
4210;SDS011;2119;48.828;12.396;2022-09-09T10:02:31;5.60;;;5.10;;
4210;SDS011;2119;48.828;12.396;2022-09-09T10:07:36;4.70;;;4.40;;
4210;SDS011;2119;48.828;12.396;2022-09-09T10:12:41;5.30;;;4.90;;
4210;SDS011;2119;48.828;12.396;2022-09-09T10:22:51;5.27;;;4.87;;
4210;SDS011;2119;48.828;12.396;2022-09-09T10:43:03;6.00;;;5.60;;
4210;SDS011;2119;48.828;12.396;2022-09-09T10:58:50;4.03;;;3.80;;
4210;SDS011;2119;48.828;12.396;2022-09-09T11:03:50;4.20;;;3.90;;
4210;SDS011;2119;48.828;12.396;2022-09-09T11:08:52;5.43;;;4.93;;
4210;SDS011;2119;48.828;12.396;2022-09-09T11:14:00;5.80;;;5.20;;
4210;SDS011;2119;48.828;12.396;2022-09-09T11:24:24;4.97;;;4.37;;
4210;SDS011;2119;48.828;12.396;2022-09-09T11:35:02;4.20;;;3.90;;
4210;SDS011;2119;48.828;12.396;2022-09-09T11:45:21;4.37;;;4.07;;
4210;SDS011;2119;48.828;12.396;2022-09-09T11:55:26;4.37;;;3.30;;
4210;SDS011;2119;48.828;12.396;2022-09-09T12:00:34;3.00;;;2.80;;
4210;SDS011;2119;48.828;12.396;2022-09-09T12:05:36;3.40;;;3.20;;
4210;SDS011;2119;48.828;12.396;2022-09-09T12:10:38;3.63;;;3.40;;
4210;SDS011;2119;48.828;12.396;2022-09-09T12:15:47;3.20;;;3.00;;
4210;SDS011;2119;48.828;12.396;2022-09-09T12:36:29;2.30;;;2.13;;
4210;SDS011;2119;48.828;12.396;2022-09-09T12:41:30;2.60;;;2.40;;
4210;SDS011;2119;48.828;12.396;2022-09-09T12:46:42;2.67;;;2.47;;
4210;SDS011;2119;48.828;12.396;2022-09-09T12:51:43;2.43;;;2.00;;
4210;SDS011;2119;48.828;12.396;2022-09-09T12:56:45;2.10;;;1.80;;
4210;SDS011;2119;48.828;12.396;2022-09-09T13:01:54;1.97;;;1.80;;
4210;SDS011;2119;48.828;12.396;2022-09-09T13:07:04;3.40;;;2.20;;
4210;SDS011;2119;48.828;12.396;2022-09-09T13:12:05;2.30;;;1.73;;
4210;SDS011;2119;48.828;12.396;2022-09-09T13:22:41;1.73;;;1.60;;
4210;SDS011;2119;48.828;12.396;2022-09-09T13:27:50;1.83;;;1.50;;
4210;SDS011;2119;48.828;12.396;2022-09-09T13:32:59;1.57;;;1.47;;
4210;SDS011;2119;48.828;12.396;2022-09-09T13:38:07;6.37;;;1.50;;
4210;SDS011;2119;48.828;12.396;2022-09-09T13:43:25;1.50;;;1.40;;
4210;SDS011;2119;48.828;12.396;2022-09-09T13:48:26;2.30;;;1.40;;
4210;SDS011;2119;48.828;12.396;2022-09-09T13:53:28;1.63;;;1.53;;
4210;SDS011;2119;48.828;12.396;2022-09-09T13:58:29;1.40;;;1.30;;
4210;SDS011;2119;48.828;12.396;2022-09-09T14:03:30;3.77;;;1.60;;
4210;SDS011;2119;48.828;12.396;2022-09-09T14:08:30;1.40;;;1.30;;
4210;SDS011;2119;48.828;12.396;2022-09-09T14:13:40;3.40;;;1.50;;
4210;SDS011;2119;48.828;12.396;2022-09-09T14:18:41;1.57;;;1.33;;
4210;SDS011;2119;48.828;12.396;2022-09-09T14:23:42;1.40;;;1.27;;
4210;SDS011;2119;48.828;12.396;2022-09-09T14:28:45;1.50;;;1.30;;
4210;SDS011;2119;48.828;12.396;2022-09-09T14:33:47;1.60;;;1.50;;
4210;SDS011;2119;48.828;12.396;2022-09-09T14:38:47;1.93;;;1.63;;
4210;SDS011;2119;48.828;12.396;2022-09-09T14:43:48;1.80;;;1.70;;
4210;SDS011;2119;48.828;12.396;2022-09-09T14:53:52;1.70;;;1.60;;
4210;SDS011;2119;48.828;12.396;2022-09-09T14:58:59;4.97;;;1.87;;
4210;SDS011;2119;48.828;12.396;2022-09-09T15:04:01;1.70;;;1.60;;
4210;SDS011;2119;48.828;12.396;2022-09-09T15:09:04;2.00;;;1.80;;
4210;SDS011;2119;48.828;12.396;2022-09-09T15:14:07;1.63;;;1.53;;
4210;SDS011;2119;48.828;12.396;2022-09-09T15:19:07;2.60;;;1.53;;
4210;SDS011;2119;48.828;12.396;2022-09-09T15:24:09;1.97;;;1.57;;
4210;SDS011;2119;48.828;12.396;2022-09-09T15:29:10;1.97;;;1.50;;
4210;SDS011;2119;48.828;12.396;2022-09-09T15:34:10;1.70;;;1.40;;
4210;SDS011;2119;48.828;12.396;2022-09-09T15:39:13;3.03;;;1.50;;
4210;SDS011;2119;48.828;12.396;2022-09-09T15:44:15;2.00;;;1.40;;
4210;SDS011;2119;48.828;12.396;2022-09-09T15:49:17;1.80;;;1.40;;
4210;SDS011;2119;48.828;12.396;2022-09-09T15:54:18;1.70;;;1.30;;
4210;SDS011;2119;48.828;12.396;2022-09-09T15:59:22;1.10;;;1.00;;
4210;SDS011;2119;48.828;12.396;2022-09-09T16:04:23;1.50;;;1.40;;
4210;SDS011;2119;48.828;12.396;2022-09-09T16:09:25;1.33;;;1.20;;
4210;SDS011;2119;48.828;12.396;2022-09-09T16:14:26;1.60;;;1.40;;
4210;SDS011;2119;48.828;12.396;2022-09-09T16:19:28;1.80;;;1.50;;
4210;SDS011;2119;48.828;12.396;2022-09-09T16:24:30;2.10;;;1.50;;
4210;SDS011;2119;48.828;12.396;2022-09-09T16:29:31;2.60;;;1.40;;
4210;SDS011;2119;48.828;12.396;2022-09-09T16:34:32;2.00;;;1.90;;
4210;SDS011;2119;48.828;12.396;2022-09-09T16:39:33;1.60;;;1.43;;
4210;SDS011;2119;48.828;12.396;2022-09-09T16:44:33;1.40;;;1.20;;
4210;SDS011;2119;48.828;12.396;2022-09-09T16:49:34;2.00;;;1.10;;
4210;SDS011;2119;48.828;12.396;2022-09-09T16:54:35;1.60;;;1.40;;
4210;SDS011;2119;48.828;12.396;2022-09-09T16:59:36;1.70;;;1.30;;
4210;SDS011;2119;48.828;12.396;2022-09-09T17:04:37;1.20;;;1.00;;
4210;SDS011;2119;48.828;12.396;2022-09-09T17:09:37;1.50;;;1.40;;
4210;SDS011;2119;48.828;12.396;2022-09-09T17:14:38;4.37;;;1.20;;
4210;SDS011;2119;48.828;12.396;2022-09-09T17:19:38;1.87;;;1.30;;
4210;SDS011;2119;48.828;12.396;2022-09-09T17:24:39;3.88;;;1.20;;
4210;SDS011;2119;48.828;12.396;2022-09-09T17:29:40;2.23;;;1.43;;
4210;SDS011;2119;48.828;12.396;2022-09-09T17:34:40;1.10;;;0.93;;
4210;SDS011;2119;48.828;12.396;2022-09-09T17:39:40;1.33;;;1.00;;
4210;SDS011;2119;48.828;12.396;2022-09-09T17:44:41;1.60;;;1.37;;
4210;SDS011;2119;48.828;12.396;2022-09-09T17:49:41;1.93;;;1.20;;
4210;SDS011;2119;48.828;12.396;2022-09-09T17:54:42;1.40;;;1.07;;
4210;SDS011;2119;48.828;12.396;2022-09-09T17:59:42;1.77;;;1.20;;
4210;SDS011;2119;48.828;12.396;2022-09-09T18:04:42;1.30;;;1.00;;
4210;SDS011;2119;48.828;12.396;2022-09-09T18:09:44;1.10;;;1.00;;
4210;SDS011;2119;48.828;12.396;2022-09-09T18:14:45;1.70;;;1.33;;
4210;SDS011;2119;48.828;12.396;2022-09-09T18:19:48;1.40;;;1.30;;
4210;SDS011;2119;48.828;12.396;2022-09-09T18:24:49;1.60;;;1.30;;
4210;SDS011;2119;48.828;12.396;2022-09-09T18:29:52;1.80;;;1.20;;
4210;SDS011;2119;48.828;12.396;2022-09-09T18:34:59;4.73;;;1.20;;
4210;SDS011;2119;48.828;12.396;2022-09-09T18:40:12;1.60;;;1.17;;
4210;SDS011;2119;48.828;12.396;2022-09-09T18:45:12;1.50;;;1.30;;
4210;SDS011;2119;48.828;12.396;2022-09-09T18:50:12;1.80;;;1.70;;
4210;SDS011;2119;48.828;12.396;2022-09-09T19:00:22;2.63;;;2.30;;
4210;SDS011;2119;48.828;12.396;2022-09-09T19:05:22;1.50;;;1.30;;
4210;SDS011;2119;48.828;12.396;2022-09-09T19:10:24;1.97;;;1.10;;
4210;SDS011;2119;48.828;12.396;2022-09-09T19:15:26;1.20;;;1.10;;
4210;SDS011;2119;48.828;12.396;2022-09-09T19:20:34;2.57;;;1.30;;
4210;SDS011;2119;48.828;12.396;2022-09-09T19:25:35;1.50;;;1.20;;
4210;SDS011;2119;48.828;12.396;2022-09-09T19:30:43;1.30;;;1.20;;
4210;SDS011;2119;48.828;12.396;2022-09-09T19:35:59;1.87;;;0.93;;
4210;SDS011;2119;48.828;12.396;2022-09-09T19:41:03;1.50;;;1.40;;
4210;SDS011;2119;48.828;12.396;2022-09-09T19:46:05;1.13;;;1.00;;
4210;SDS011;2119;48.828;12.396;2022-09-09T19:51:15;1.37;;;1.10;;
4210;SDS011;2119;48.828;12.396;2022-09-09T19:56:17;1.60;;;1.50;;
4210;SDS011;2119;48.828;12.396;2022-09-09T20:01:20;1.20;;;1.10;;
4210;SDS011;2119;48.828;12.396;2022-09-09T20:06:21;2.43;;;1.00;;
4210;SDS011;2119;48.828;12.396;2022-09-09T20:16:31;2.87;;;1.20;;
4210;SDS011;2119;48.828;12.396;2022-09-09T20:21:34;1.40;;;1.30;;
4210;SDS011;2119;48.828;12.396;2022-09-09T20:26:36;1.60;;;1.50;;
4210;SDS011;2119;48.828;12.396;2022-09-09T20:31:38;1.20;;;1.10;;
4210;SDS011;2119;48.828;12.396;2022-09-09T20:36:42;1.33;;;1.23;;
4210;SDS011;2119;48.828;12.396;2022-09-09T20:41:42;1.90;;;1.30;;
4210;SDS011;2119;48.828;12.396;2022-09-09T20:46:44;3.53;;;1.50;;
4210;SDS011;2119;48.828;12.396;2022-09-09T20:51:48;1.50;;;1.40;;
4210;SDS011;2119;48.828;12.396;2022-09-09T20:56:49;1.40;;;1.30;;
4210;SDS011;2119;48.828;12.396;2022-09-09T21:01:50;1.37;;;1.27;;
4210;SDS011;2119;48.828;12.396;2022-09-09T21:06:51;1.23;;;1.13;;
4210;SDS011;2119;48.828;12.396;2022-09-09T21:11:51;2.28;;;1.25;;
4210;SDS011;2119;48.828;12.396;2022-09-09T21:16:52;2.53;;;1.27;;
4210;SDS011;2119;48.828;12.396;2022-09-09T21:21:53;1.30;;;1.20;;
4210;SDS011;2119;48.828;12.396;2022-09-09T21:26:53;3.05;;;1.20;;
4210;SDS011;2119;48.828;12.396;2022-09-09T21:31:55;1.20;;;1.10;;
4210;SDS011;2119;48.828;12.396;2022-09-09T21:36:55;1.30;;;1.20;;
4210;SDS011;2119;48.828;12.396;2022-09-09T21:41:56;4.00;;;1.33;;
4210;SDS011;2119;48.828;12.396;2022-09-09T21:46:57;1.53;;;1.40;;
4210;SDS011;2119;48.828;12.396;2022-09-09T21:51:57;1.43;;;1.30;;
4210;SDS011;2119;48.828;12.396;2022-09-09T21:56:57;1.50;;;1.40;;
4210;SDS011;2119;48.828;12.396;2022-09-09T22:01:57;2.10;;;1.65;;
4210;SDS011;2119;48.828;12.396;2022-09-09T22:06:58;1.53;;;1.43;;
4210;SDS011;2119;48.828;12.396;2022-09-09T22:11:58;1.70;;;1.60;;
4210;SDS011;2119;48.828;12.396;2022-09-09T22:16:58;1.70;;;1.30;;
4210;SDS011;2119;48.828;12.396;2022-09-09T22:21:58;1.77;;;1.67;;
4210;SDS011;2119;48.828;12.396;2022-09-09T22:26:59;1.70;;;1.60;;
4210;SDS011;2119;48.828;12.396;2022-09-09T22:32:00;1.70;;;1.53;;
4210;SDS011;2119;48.828;12.396;2022-09-09T22:37:00;1.63;;;1.47;;
4210;SDS011;2119;48.828;12.396;2022-09-09T22:42:01;1.50;;;1.40;;
4210;SDS011;2119;48.828;12.396;2022-09-09T22:47:03;2.13;;;1.50;;
4210;SDS011;2119;48.828;12.396;2022-09-09T22:52:03;2.67;;;1.70;;
4210;SDS011;2119;48.828;12.396;2022-09-09T22:57:03;2.47;;;2.28;;
4210;SDS011;2119;48.828;12.396;2022-09-09T23:02:03;2.97;;;2.70;;
4210;SDS011;2119;48.828;12.396;2022-09-09T23:07:04;2.22;;;2.03;;
4210;SDS011;2119;48.828;12.396;2022-09-09T23:12:06;2.03;;;1.90;;
4210;SDS011;2119;48.828;12.396;2022-09-09T23:17:08;2.33;;;2.10;;
4210;SDS011;2119;48.828;12.396;2022-09-09T23:22:08;5.10;;;2.08;;
4210;SDS011;2119;48.828;12.396;2022-09-09T23:27:09;2.00;;;1.90;;
4210;SDS011;2119;48.828;12.396;2022-09-09T23:32:09;5.63;;;3.00;;
4210;SDS011;2119;48.828;12.396;2022-09-09T23:37:10;1.77;;;1.65;;
4210;SDS011;2119;48.828;12.396;2022-09-09T23:42:10;2.20;;;2.00;;
4210;SDS011;2119;48.828;12.396;2022-09-09T23:47:11;2.40;;;2.25;;
4210;SDS011;2119;48.828;12.396;2022-09-09T23:52:11;3.35;;;1.98;;
4210;SDS011;2119;48.828;12.396;2022-09-09T23:57:11;2.17;;;2.08;;
